KHGR/HGR METAR and TAF weather

Enter ICAO airport designator
Station Type Date Time Source
KHGR METAR 2020/04/04 11:53 UTC NOAA

KHGR 041153Z 35009KT 10SM OVC030 09/04 A3000 RMK AO2 SLP170 T00890039 10089 20083 53017


Station Type Date Time Source
KHGR Decoded METAR 2020/04/04 11:53 UTC NOAA

HAGERSTOWN REGIONAL AIRPORT, MD, United States (KHGR) 39-42N 077-44W 224M
Apr 04, 2020 - 07:53 AM EDT / 2020.04.04 1153 UTC
Wind: from the N (350 degrees) at 10 MPH (9 KT):0
Visibility: 10 mile(s):0
Sky conditions: overcast
Temperature: 48.0 F (8.9 C)
Dew Point: 39.0 F (3.9 C)
Relative Humidity: 70%
Pressure (altimeter): 30 in. Hg (1015 hPa)
Pressure tendency: 0.05 inches (1.7 hPa) higher than three hours ago
ob: KHGR 041153Z 35009KT 10SM OVC030 09/04 A3000 RMK AO2 SLP170 T00890039 10089 20083 53017
cycle: 12

Station Type Date Time Source
KHGR TAF UTC NOAA

Error!

Example: see airport list